Time;durP1;ratioP1;P1;durP2;ratioP2;P2;SDS_P1;SDS_P2;PMS_P1;PMS_P2;Temp;Humidity;BMP_temperature;BMP_pressure;BME280_temperature;BME280_humidity;BME280_pressure;Samples;Min_cycle;Max_cycle;Signal;HPM_P1;HPM_P2
2021/12/05 10:38:34;;;;;;;4.97;2.07;;;2.90;99.90;;;;;;5137149;27;20411;-79
2021/12/05 10:43:40;;;;;;;3.50;1.90;;;2.90;99.90;;;;;;5137090;27;20420;-79
2021/12/05 10:46:09;;;;;;;4.43;2.10;;;2.90;99.90;;;;;;5137638;27;20408;-80
2021/12/05 10:48:42;;;;;;;3.37;1.87;;;2.90;99.90;;;;;;5137153;27;20416;-78
2021/12/05 10:51:27;;;;;;;3.80;1.80;;;2.90;99.90;;;;;;5134810;28;20965;-80
2021/12/05 10:53:59;;;;;;;3.63;1.53;;;3.10;99.90;;;;;;5136206;27;20434;-79
2021/12/05 10:56:35;;;;;;;4.13;1.70;;;2.90;99.90;;;;;;5136466;27;20500;-79
2021/12/05 10:59:07;;;;;;;4.27;1.70;;;2.90;99.90;;;;;;5137432;27;20456;-81
2021/12/05 11:01:42;;;;;;;3.40;1.60;;;2.90;99.90;;;;;;5135876;28;20796;-80
2021/12/05 11:04:15;;;;;;;4.73;1.93;;;3.00;99.90;;;;;;5137412;27;20194;-79
2021/12/05 11:06:50;;;;;;;5.23;2.90;;;3.10;99.90;;;;;;5136390;27;20411;-79
2021/12/05 11:09:17;;;;;;;7.03;2.83;;;3.00;99.90;;;;;;5136329;27;20412;-79
2021/12/05 11:11:47;;;;;;;4.30;2.17;;;2.80;99.90;;;;;;5134802;28;20203;-80
2021/12/05 11:14:22;;;;;;;8.47;3.03;;;2.90;99.90;;;;;;5136479;27;20790;-80
2021/12/05 11:16:50;;;;;;;8.37;3.30;;;2.90;99.90;;;;;;5134675;28;20419;-80
2021/12/05 11:19:31;;;;;;;3.73;2.17;;;2.90;99.90;;;;;;5136488;27;20467;-80
2021/12/05 11:22:15;;;;;;;3.37;1.60;;;3.00;99.90;;;;;;5135843;27;20401;-79
2021/12/05 11:24:45;;;;;;;3.87;1.70;;;3.00;99.90;;;;;;5134182;28;20285;-79
2021/12/05 11:27:25;;;;;;;2.50;1.37;;;3.10;99.90;;;;;;5134619;28;20443;-79
2021/12/05 11:30:00;;;;;;;3.63;1.83;;;3.00;99.90;;;;;;5136227;27;20885;-80
2021/12/05 11:32:41;;;;;;;3.30;1.70;;;2.90;99.90;;;;;;5135432;27;20463;-81
2021/12/05 11:35:30;;;;;;;3.37;1.90;;;2.90;99.90;;;;;;5135724;27;20508;-79
2021/12/05 11:38:22;;;;;;;4.77;1.63;;;2.90;99.90;;;;;;5134259;28;20174;-79
2021/12/05 11:41:08;;;;;;;4.47;1.73;;;2.90;99.90;;;;;;5134519;27;20164;-80
2021/12/05 11:43:42;;;;;;;2.43;1.53;;;2.90;99.90;;;;;;5122791;28;20203;-79
2021/12/05 11:46:17;;;;;;;7.67;2.20;;;3.00;99.90;;;;;;5121899;28;20164;-79
2021/12/05 11:48:53;;;;;;;6.70;1.83;;;2.90;99.90;;;;;;5120878;28;20178;-79
2021/12/05 11:51:35;;;;;;;1.70;1.40;;;2.90;99.90;;;;;;5123758;28;20205;-80
2021/12/05 11:54:08;;;;;;;3.73;2.20;;;2.90;99.90;;;;;;5126202;28;20196;-79
2021/12/05 11:56:34;;;;;;;5.50;2.30;;;2.90;99.90;;;;;;5122392;28;20210;-80
2021/12/05 11:59:04;;;;;;;6.73;2.73;;;2.80;99.90;;;;;;5121743;28;20530;-79
2021/12/05 12:01:51;;;;;;;6.20;2.50;;;2.90;99.90;;;;;;5121121;28;20198;-79
2021/12/05 12:04:21;;;;;;;4.87;2.70;;;3.00;99.90;;;;;;5120541;28;20191;-79
2021/12/05 12:07:13;;;;;;;4.57;2.27;;;2.90;99.90;;;;;;5122032;28;20429;-80
2021/12/05 12:09:39;;;;;;;3.47;1.47;;;3.00;99.90;;;;;;5120956;28;20168;-79
2021/12/05 12:12:06;;;;;;;3.47;2.07;;;3.00;99.90;;;;;;5119378;28;20207;-78
2021/12/05 12:14:32;;;;;;;3.10;1.50;;;3.00;99.90;;;;;;5119706;28;20228;-78
2021/12/05 12:16:59;;;;;;;2.03;1.60;;;2.90;99.90;;;;;;5118996;28;20414;-78
2021/12/05 12:19:25;;;;;;;4.77;2.50;;;3.00;99.90;;;;;;5117950;28;20424;-78
2021/12/05 12:21:56;;;;;;;2.70;1.70;;;2.90;99.90;;;;;;5116433;28;20195;-78
2021/12/05 12:24:22;;;;;;;2.97;1.70;;;2.90;99.90;;;;;;5114988;28;20208;-78
2021/12/05 12:26:48;;;;;;;3.70;1.97;;;2.80;99.90;;;;;;5116611;28;20466;-77
2021/12/05 12:29:14;;;;;;;3.07;2.00;;;;;;;;;;5116255;28;20171;-78
2021/12/05 12:31:44;;;;;;;2.93;1.60;;;2.90;99.90;;;;;;5116011;28;20222;-78
2021/12/05 12:34:17;;;;;;;3.60;2.07;;;3.20;99.90;;;;;;5116150;28;20826;-78
2021/12/05 12:36:49;;;;;;;3.10;1.80;;;2.80;99.90;;;;;;5116863;28;20523;-77
2021/12/05 12:39:21;;;;;;;3.40;2.17;;;3.00;99.90;;;;;;5118071;27;20199;-79
2021/12/05 12:42:10;;;;;;;1.90;1.77;;;3.00;99.90;;;;;;5120210;28;20436;-80
2021/12/05 12:44:37;;;;;;;5.17;1.50;;;2.90;99.90;;;;;;5120666;28;20772;-79
2021/12/05 12:47:06;;;;;;;2.67;1.57;;;2.90;99.90;;;;;;5122831;28;20413;-79
2021/12/05 12:49:35;;;;;;;5.43;1.40;;;2.90;99.90;;;;;;5121422;28;20461;-78
2021/12/05 12:52:14;;;;;;;2.40;1.67;;;2.70;99.90;;;;;;5118388;28;20816;-78
2021/12/05 12:54:44;;;;;;;3.37;1.80;;;2.90;99.90;;;;;;5119048;28;20187;-78
2021/12/05 12:57:20;;;;;;;2.63;1.83;;;2.80;99.90;;;;;;5119056;28;20179;-78
2021/12/05 13:00:00;;;;;;;2.67;1.73;;;2.90;99.90;;;;;;5118142;28;20409;-78
2021/12/05 13:11:14;;;;;;;5.07;2.50;;;2.90;99.90;;;;;;5124414;28;20206;-78
2021/12/05 13:13:42;;;;;;;4.47;2.20;;;2.90;99.90;;;;;;5120535;28;20656;-78
2021/12/05 13:16:29;;;;;;;4.37;2.03;;;3.00;99.90;;;;;;5120559;27;20429;-78
2021/12/05 13:19:08;;;;;;;3.43;2.00;;;3.00;99.90;;;;;;5117590;28;20175;-79
2021/12/05 13:21:39;;;;;;;4.30;2.10;;;2.90;99.90;;;;;;5118248;28;20417;-78
2021/12/05 13:24:42;;;;;;;4.87;1.93;;;2.90;99.90;;;;;;5121232;28;20437;-78
2021/12/05 13:27:23;;;;;;;13.30;7.77;;;3.10;99.90;;;;;;5115252;28;20195;-78
2021/12/05 13:29:52;;;;;;;29.27;14.50;;;3.10;99.90;;;;;;5119875;28;20428;-79
2021/12/05 13:32:25;;;;;;;12.83;8.40;;;3.30;99.90;;;;;;5120122;28;20453;-78
2021/12/05 13:34:54;;;;;;;8.00;5.13;;;3.30;99.90;;;;;;5117890;28;20433;-77
2021/12/05 13:37:24;;;;;;;11.20;5.80;;;3.20;99.90;;;;;;5117828;28;20769;-78
2021/12/05 13:40:25;;;;;;;5.77;3.93;;;3.20;99.90;;;;;;5116257;28;20505;-78
2021/12/05 13:42:53;;;;;;;4.47;2.73;;;3.00;99.90;;;;;;5116454;28;20191;-78
2021/12/05 13:45:42;;;;;;;16.30;6.47;;;3.00;99.90;;;;;;5117868;28;20176;-78
2021/12/05 13:48:15;;;;;;;29.37;16.20;;;3.00;99.90;;;;;;5123834;28;20428;-78
2021/12/05 13:50:42;;;;;;;9.10;4.90;;;3.00;99.90;;;;;;5124961;28;20456;-78
2021/12/05 13:53:08;;;;;;;37.63;19.97;;;3.00;99.90;;;;;;5117702;28;20429;-78
2021/12/05 13:56:02;;;;;;;13.40;7.33;;;3.00;99.90;;;;;;5117619;28;20413;-78
2021/12/05 14:01:29;;;;;;;3.80;3.07;;;3.00;99.90;;;;;;5115612;28;20428;-79
2021/12/05 14:04:00;;;;;;;6.83;5.03;;;3.00;99.90;;;;;;5116631;28;20282;-78
2021/12/05 14:06:40;;;;;;;5.53;4.90;;;2.90;99.90;;;;;;5116282;28;20187;-78
2021/12/05 14:09:20;;;;;;;8.83;7.13;;;2.80;99.90;;;;;;5116404;28;20175;-78
2021/12/05 14:12:04;;;;;;;7.30;5.53;;;2.80;99.90;;;;;;5116424;28;20676;-78
2021/12/05 14:14:41;;;;;;;4.00;3.20;;;2.80;99.90;;;;;;5116918;28;20907;-78
2021/12/05 14:17:11;;;;;;;14.10;12.60;;;2.80;99.90;;;;;;5115676;28;20441;-78
2021/12/05 14:19:39;;;;;;;12.70;9.53;;;2.90;99.90;;;;;;5117003;28;20837;-78
2021/12/05 14:22:08;;;;;;;10.63;7.50;;;2.90;99.90;;;;;;5116716;28;20184;-79
2021/12/05 14:24:37;;;;;;;14.27;9.60;;;2.80;99.90;;;;;;5115223;28;20827;-79
2021/12/05 14:27:08;;;;;;;8.13;5.70;;;2.90;99.90;;;;;;5117097;28;20195;-78
2021/12/05 14:29:37;;;;;;;8.40;3.47;;;2.80;99.90;;;;;;5117270;28;20186;-78
2021/12/05 14:32:33;;;;;;;10.77;5.33;;;2.80;99.90;;;;;;5116852;28;20207;-78
2021/12/05 14:35:20;;;;;;;3.77;2.17;;;2.70;99.90;;;;;;5116364;28;20282;-78
2021/12/05 14:37:48;;;;;;;4.73;3.60;;;2.70;99.90;;;;;;5115995;28;20617;-78
2021/12/05 14:40:30;;;;;;;6.83;2.90;;;2.70;99.90;;;;;;5117711;28;20420;-78
2021/12/05 14:42:59;;;;;;;4.37;2.90;;;;;;;;;;5117219;28;20243;-78
2021/12/05 14:45:28;;;;;;;4.23;3.50;;;2.80;99.90;;;;;;5118709;28;20405;-78
2021/12/05 14:47:59;;;;;;;4.50;2.97;;;2.80;99.90;;;;;;5118421;28;20537;-79
2021/12/05 14:50:27;;;;;;;4.30;2.63;;;2.80;99.90;;;;;;5117922;28;20294;-79
2021/12/05 14:52:55;;;;;;;6.70;4.70;;;2.80;99.90;;;;;;5117403;28;20409;-78
2021/12/05 14:55:24;;;;;;;10.80;4.93;;;2.90;99.90;;;;;;5119639;28;20467;-78
2021/12/05 14:57:53;;;;;;;6.37;3.93;;;2.90;99.90;;;;;;5118825;28;20402;-79
2021/12/05 15:00:23;;;;;;;6.30;4.10;;;2.90;99.90;;;;;;5121065;28;20480;-78
2021/12/05 15:02:57;;;;;;;7.57;6.03;;;2.90;99.90;;;;;;5113702;28;20249;-78
2021/12/05 15:05:24;;;;;;;6.00;4.50;;;2.90;99.90;;;;;;5115025;28;20400;-78
2021/12/05 15:08:03;;;;;;;12.60;4.70;;;2.90;99.90;;;;;;5124929;28;20439;-79
2021/12/05 15:10:29;;;;;;;10.67;4.77;;;2.90;99.90;;;;;;5134722;28;20392;-77
2021/12/05 15:12:55;;;;;;;10.00;6.27;;;3.00;99.90;;;;;;5132347;28;20209;-78
2021/12/05 15:15:23;;;;;;;4.17;3.77;;;2.90;99.90;;;;;;5134075;28;20215;-78
2021/12/05 15:17:49;;;;;;;7.13;3.40;;;2.90;99.90;;;;;;5136683;27;20185;-78
2021/12/05 15:20:18;;;;;;;5.73;3.07;;;2.80;99.90;;;;;;5137568;27;20420;-78
2021/12/05 15:22:47;;;;;;;6.30;2.87;;;2.70;99.90;;;;;;5139832;27;20281;-79
2021/12/05 15:25:16;;;;;;;7.73;3.37;;;2.80;99.90;;;;;;5139352;27;20776;-79
2021/12/05 15:27:43;;;;;;;5.87;4.03;;;2.70;99.90;;;;;;5140569;27;20412;-78
2021/12/05 15:30:25;;;;;;;9.73;5.93;;;2.60;99.90;;;;;;5139306;27;20477;-79
2021/12/05 15:32:57;;;;;;;6.23;4.23;;;2.50;99.90;;;;;;5139363;27;20442;-79
2021/12/05 15:35:24;;;;;;;10.97;5.63;;;2.30;99.90;;;;;;5124618;27;20838;-78
2021/12/05 15:37:59;;;;;;;10.80;5.23;;;2.20;99.90;;;;;;5117763;28;20435;-79
2021/12/05 15:40:27;;;;;;;90.67;58.07;;;2.20;99.90;;;;;;5117974;28;20397;-79
2021/12/05 15:42:59;;;;;;;55.33;29.33;;;2.20;99.90;;;;;;5128346;27;20419;-78
2021/12/05 15:45:25;;;;;;;35.63;18.90;;;2.20;99.90;;;;;;5141161;27;20394;-78
2021/12/05 15:47:50;;;;;;;34.30;17.37;;;2.10;99.90;;;;;;5138047;27;20491;-78
2021/12/05 15:50:26;;;;;;;27.63;15.80;;;2.10;99.90;;;;;;5137893;27;20178;-78
2021/12/05 15:52:58;;;;;;;37.37;20.80;;;2.20;99.90;;;;;;5138287;27;20174;-78
2021/12/05 15:55:33;;;;;;;20.23;12.30;;;2.20;99.90;;;;;;5137327;27;20404;-78
2021/12/05 15:58:08;;;;;;;17.07;11.07;;;2.20;99.90;;;;;;5136706;27;20445;-78
2021/12/05 16:00:39;;;;;;;10.00;6.23;;;2.30;99.90;;;;;;5137642;27;20489;-77
2021/12/05 16:03:10;;;;;;;13.97;8.73;;;2.20;99.90;;;;;;5137724;27;20442;-78
2021/12/05 16:05:38;;;;;;;10.43;6.57;;;2.30;99.90;;;;;;5136436;27;20773;-78
2021/12/05 16:08:09;;;;;;;17.77;8.80;;;2.00;99.90;;;;;;5137388;27;20408;-78
2021/12/05 16:10:38;;;;;;;19.30;11.23;;;2.10;99.90;;;;;;5137199;27;20886;-78
2021/12/05 16:13:12;;;;;;;15.47;10.03;;;2.10;99.90;;;;;;5137346;27;20484;-78
2021/12/05 16:15:41;;;;;;;11.43;7.30;;;2.10;99.90;;;;;;5136293;27;20420;-78
2021/12/05 16:18:08;;;;;;;8.47;6.43;;;2.10;99.90;;;;;;5137335;27;20894;-78
2021/12/05 16:20:45;;;;;;;10.10;5.67;;;2.10;99.90;;;;;;5137140;27;20484;-78
2021/12/05 16:23:19;;;;;;;6.77;5.07;;;1.90;99.90;;;;;;5137261;27;20432;-78
2021/12/05 16:26:15;;;;;;;11.00;5.60;;;1.90;99.90;;;;;;5135978;27;20483;-78
